Time;durP1;ratioP1;P1;durP2;ratioP2;P2;SDS_P1;SDS_P2;PMS_P1;PMS_P2;Temp;Humidity;BMP_temperature;BMP_pressure;BME280_temperature;BME280_humidity;BME280_pressure;Samples;Min_cycle;Max_cycle;Signal;HPM_P1;HPM_P2
2022/11/27 00:01:14;;;;;;;17.45;8.63;;;;;;;10.36;63.04;100421.55;4122280;85;28557;-81
2022/11/27 00:07:16;;;;;;;19.98;8.20;;;;;;;10.94;63.43;100414.62;4068116;87;28550;-83
2022/11/27 00:13:18;;;;;;;17.85;8.63;;;;;;;10.93;63.37;100416.16;4121682;85;28537;-82
2022/11/27 00:19:19;;;;;;;17.95;7.95;;;;;;;10.50;63.04;100418.48;4109593;85;28500;-82
2022/11/27 00:25:20;;;;;;;17.60;8.98;;;;;;;10.37;64.38;100413.83;4118660;85;28551;-83
2022/11/27 00:31:27;;;;;;;20.05;9.18;;;;;;;9.86;64.92;100419.72;4063373;86;28551;-83
2022/11/27 00:37:29;;;;;;;18.98;9.20;;;;;;;10.07;65.64;100416.70;4011296;86;28510;-83
2022/11/27 00:43:30;;;;;;;21.62;9.63;;;;;;;9.79;66.16;100425.53;4041951;87;28519;-83
2022/11/27 00:49:31;;;;;;;14.98;7.87;;;;;;;10.00;65.62;100420.67;4036903;86;28577;-83
2022/11/27 00:55:33;;;;;;;18.82;9.00;;;;;;;9.71;65.91;100414.41;4076186;85;28506;-82
2022/11/27 01:01:39;;;;;;;16.75;8.60;;;;;;;10.08;64.46;100408.95;4061827;85;28488;-81
2022/11/27 01:07:40;;;;;;;18.32;8.53;;;;;;;10.32;64.63;100410.38;4096777;85;28551;-82
2022/11/27 01:13:41;;;;;;;17.80;8.58;;;;;;;10.67;64.50;100406.89;4085732;85;28517;-81
2022/11/27 01:19:43;;;;;;;18.70;8.78;;;;;;;10.36;64.49;100409.45;4072816;85;28520;-81
2022/11/27 01:25:44;;;;;;;18.65;8.00;;;;;;;10.48;64.05;100407.94;4047911;86;28514;-82
2022/11/27 01:31:45;;;;;;;18.92;8.80;;;;;;;10.56;64.53;100406.95;4032090;86;28531;-82
2022/11/27 01:37:47;;;;;;;16.07;7.35;;;;;;;10.71;63.65;100399.58;4095017;85;28475;-81
2022/11/27 01:43:59;;;;;;;17.48;7.65;;;;;;;10.50;66.18;100398.31;4114856;85;28547;-82
2022/11/27 01:50:11;;;;;;;15.00;7.37;;;;;;;10.29;66.86;100391.44;4027894;87;28498;-83
2022/11/27 01:56:14;;;;;;;15.72;7.40;;;;;;;10.39;68.00;100394.30;4051890;87;28599;-82
2022/11/27 02:02:15;;;;;;;15.95;7.62;;;;;;;10.44;68.21;100385.98;4111309;85;28528;-82
2022/11/27 02:08:18;;;;;;;16.23;8.05;;;;;;;10.38;68.43;100394.80;4051301;86;28680;-83
2022/11/27 02:14:30;;;;;;;15.05;7.62;;;;;;;10.56;65.22;100398.88;4025359;87;28543;-82
2022/11/27 02:20:46;;;;;;;16.30;7.37;;;;;;;10.39;67.97;100397.80;4030531;87;28539;-81
2022/11/27 02:27:31;;;;;;;16.77;7.60;;;;;;;10.44;68.72;100403.47;4038674;87;28536;-80
2022/11/27 02:33:36;;;;;;;16.23;7.67;;;;;;;10.38;68.76;100411.45;4036410;87;28513;-82
2022/11/27 02:39:58;;;;;;;16.87;8.10;;;;;;;10.55;68.85;100401.25;4099582;85;28601;-79
2022/11/27 02:46:01;;;;;;;17.17;7.80;;;;;;;10.70;67.91;100399.80;4030657;88;28497;-81
2022/11/27 02:52:04;;;;;;;15.32;7.58;;;;;;;10.50;68.21;100416.64;4076511;85;28563;-80
2022/11/27 02:58:10;;;;;;;18.32;7.83;;;;;;;10.69;68.29;100422.34;4018350;86;28550;-80
2022/11/27 03:04:17;;;;;;;16.07;7.92;;;;;;;10.60;67.42;100418.95;4046201;86;28560;-80
2022/11/27 03:10:27;;;;;;;15.85;8.15;;;;;;;10.63;67.24;100421.78;4038270;86;28620;-81
2022/11/27 03:17:03;;;;;;;13.10;7.15;;;;;;;10.55;68.64;100417.39;4034539;86;28559;-82
2022/11/27 03:23:04;;;;;;;19.35;9.25;;;;;;;10.38;69.12;100423.02;4043378;86;28511;-82
2022/11/27 03:29:11;;;;;;;20.75;9.88;;;;;;;10.36;69.15;100425.09;4035152;86;28553;-82
2022/11/27 03:35:14;;;;;;;;;;;;;;;10.32;68.25;100419.80;4041409;86;28586;-82
2022/11/27 03:42:11;;;;;;;20.20;10.18;;;;;;;10.32;68.27;100433.23;4057326;86;20331;-83
2022/11/27 03:48:36;;;;;;;21.55;10.38;;;;;;;10.44;68.65;100432.20;4032367;86;28546;-81
2022/11/27 03:55:03;;;;;;;21.17;10.40;;;;;;;10.32;69.07;100431.36;4013206;86;28578;-84
2022/11/27 04:01:09;;;;;;;23.35;10.43;;;;;;;10.45;69.27;100436.55;4020208;86;28597;-82
2022/11/27 04:07:16;;;;;;;19.77;10.05;;;;;;;10.21;70.10;100431.89;4035185;86;28622;-82
2022/11/27 04:13:17;;;;;;;19.57;8.90;;;;;;;10.16;71.56;100425.75;4095634;86;28500;-83
2022/11/27 04:19:19;;;;;;;21.65;10.60;;;;;;;10.09;71.79;100428.89;4095977;85;28572;-82
2022/11/27 04:25:21;;;;;;;20.12;10.50;;;;;;;10.06;70.91;100433.31;4031190;87;28547;-83
2022/11/27 04:31:22;;;;;;;22.20;10.85;;;;;;;10.01;71.56;100437.92;4046541;87;28517;-83
2022/11/27 04:37:24;;;;;;;20.88;9.95;;;;;;;10.21;70.79;100445.33;4030665;87;28511;-82
2022/11/27 04:43:25;;;;;;;21.33;10.40;;;;;;;10.03;71.29;100446.62;4037773;87;28529;-82
2022/11/27 04:49:26;;;;;;;19.82;10.05;;;;;;;9.96;72.35;100441.72;4048178;86;28618;-82
2022/11/27 04:55:28;;;;;;;20.43;9.55;;;;;;;9.94;73.41;100434.34;4113386;85;28521;-82
2022/11/27 05:01:30;;;;;;;22.13;11.20;;;;;;;9.97;73.36;100429.09;4144978;85;28457;-82
2022/11/27 05:07:31;;;;;;;23.38;11.03;;;;;;;9.88;73.74;100432.44;4133932;85;28564;-82
2022/11/27 05:13:33;;;;;;;21.60;10.85;;;;;;;9.76;74.00;100424.89;4127939;86;28535;-82
2022/11/27 05:19:35;;;;;;;23.02;11.55;;;;;;;9.74;75.32;100419.39;4127255;85;28540;-83
2022/11/27 05:25:36;;;;;;;22.90;10.95;;;;;;;10.10;73.22;100423.86;4125905;85;28594;-82
2022/11/27 05:31:38;;;;;;;20.27;9.98;;;;;;;10.06;73.11;100437.88;4131781;85;28518;-82
2022/11/27 05:37:39;;;;;;;21.42;10.90;;;;;;;9.94;73.76;100433.52;4118382;85;28464;-82
2022/11/27 05:43:41;;;;;;;26.05;11.93;;;;;;;10.07;72.49;100447.59;4039683;86;28593;-84
2022/11/27 05:49:42;;;;;;;25.85;11.38;;;;;;;9.98;71.57;100443.70;4102956;85;28484;-82
2022/11/27 05:55:43;;;;;;;23.50;10.85;;;;;;;9.90;72.77;100443.81;4112621;85;28532;-82
2022/11/27 06:01:45;;;;;;;22.35;10.88;;;;;;;9.87;73.05;100445.02;4097810;85;28524;-82
2022/11/27 06:07:46;;;;;;;22.15;10.10;;;;;;;9.68;74.59;100442.47;4096736;85;28498;-83
2022/11/27 06:13:48;;;;;;;22.07;10.15;;;;;;;9.65;75.83;100434.80;4098851;85;28531;-82
2022/11/27 06:19:50;;;;;;;24.55;10.95;;;;;;;9.66;75.76;100426.22;4099493;85;28528;-82
2022/11/27 06:25:51;;;;;;;24.05;11.73;;;;;;;9.86;75.58;100429.93;4097396;85;28562;-81
2022/11/27 06:31:53;;;;;;;24.57;11.30;;;;;;;9.92;75.34;100433.70;4095905;85;28528;-81
2022/11/27 06:37:54;;;;;;;26.20;12.35;;;;;;;9.96;75.18;100442.22;4086887;85;28543;-82
2022/11/27 06:43:59;;;;;;;24.25;11.65;;;;;;;9.89;76.22;100437.63;4101874;85;28541;-83
2022/11/27 06:50:00;;;;;;;25.15;11.97;;;;;;;9.69;77.24;100428.55;4111693;85;28530;-83
2022/11/27 06:56:05;;;;;;;25.23;12.03;;;;;;;9.88;77.22;100429.22;4040713;87;28562;-81
2022/11/27 07:02:11;;;;;;;22.07;11.45;;;;;;;9.99;77.06;100432.42;4061990;87;28553;-81
2022/11/27 07:08:13;;;;;;;19.98;10.60;;;;;;;10.22;75.69;100428.17;4116220;85;28574;-81
2022/11/27 07:14:14;;;;;;;24.72;11.55;;;;;;;10.16;75.50;100424.41;4064024;86;28546;-81
2022/11/27 07:20:15;;;;;;;22.45;11.93;;;;;;;10.39;74.45;100419.84;4120505;85;28503;-82
2022/11/27 07:26:21;;;;;;;23.95;11.50;;;;;;;10.35;73.79;100426.11;4121272;85;28514;-81
2022/11/27 07:32:22;;;;;;;23.77;11.53;;;;;;;10.43;73.37;100425.16;4114363;85;28535;-79
2022/11/27 07:38:23;;;;;;;24.47;10.43;;;;;;;10.53;72.22;100425.64;4125630;85;28496;-83
2022/11/27 07:44:24;;;;;;;21.93;10.85;;;;;;;10.71;71.44;100426.47;4120530;85;28559;-85
2022/11/27 07:50:26;;;;;;;21.23;10.80;;;;;;;10.60;71.93;100429.22;4124144;85;28560;-83
2022/11/27 07:56:29;;;;;;;21.07;10.30;;;;;;;10.92;71.05;100427.95;4120309;85;28481;-81
2022/11/27 08:02:30;;;;;;;21.77;10.20;;;;;;;10.87;70.69;100425.85;4120302;85;28606;-84
2022/11/27 08:08:32;;;;;;;20.70;9.85;;;;;;;11.01;70.06;100422.72;4114377;85;28490;-85
2022/11/27 08:14:34;;;;;;;16.15;8.23;;;;;;;10.87;69.64;100437.95;4104478;85;28559;-84
2022/11/27 08:20:36;;;;;;;16.07;8.45;;;;;;;10.71;69.83;100441.27;4108002;85;28540;-81
2022/11/27 08:26:37;;;;;;;18.98;8.78;;;;;;;11.05;69.26;100441.99;4102858;85;28642;-82
2022/11/27 08:32:41;;;;;;;14.78;7.65;;;;;;;10.49;69.78;100432.95;4057107;86;28559;-84
2022/11/27 08:38:43;;;;;;;14.98;7.40;;;;;;;10.65;69.08;100425.94;4064114;86;28503;-88
2022/11/27 08:44:47;;;;;;;14.35;7.12;;;;;;;10.85;68.89;100417.97;4044398;86;28526;-87
2022/11/27 08:50:50;;;;;;;14.00;7.00;;;;;;;11.01;68.04;100418.68;4003487;87;28538;-84
2022/11/27 08:56:51;;;;;;;13.48;7.92;;;;;;;11.24;66.84;100422.38;3940001;88;28533;-84
2022/11/27 09:02:53;;;;;;;14.30;6.72;;;;;;;11.78;65.98;100428.44;3971265;87;28536;-86
2022/11/27 09:09:04;;;;;;;14.83;7.53;;;;;;;11.23;65.61;100430.14;4036374;85;28485;-85
2022/11/27 09:15:06;;;;;;;15.50;7.58;;;;;;;11.59;66.56;100428.18;4029075;85;28633;-89
2022/11/27 09:21:12;;;;;;;10.85;6.67;;;;;;;11.73;64.75;100435.78;4031228;86;28551;-86
2022/11/27 09:27:19;;;;;;;14.87;7.33;;;;;;;11.34;64.88;100422.02;3953053;88;28596;-86
2022/11/27 09:33:19;;;;;;;12.07;6.55;;;;;;;11.81;64.07;100432.05;3982323;87;28578;-85
2022/11/27 09:39:21;;;;;;;12.88;7.35;;;;;;;11.59;63.84;100430.88;3960053;87;28546;-83
2022/11/27 09:45:24;;;;;;;18.77;10.00;;;;;;;11.51;63.86;100429.20;3985642;86;28610;-86
2022/11/27 09:51:46;;;;;;;18.40;9.68;;;;;;;11.81;65.41;100430.20;4110843;85;28570;-84
2022/11/27 09:58:19;;;;;;;16.60;9.20;;;;;;;11.74;65.12;100428.55;4112435;85;28649;-83
2022/11/27 10:04:23;;;;;;;18.37;9.53;;;;;;;11.72;64.34;100416.61;4118513;85;28561;-83
2022/11/27 10:10:55;;;;;;;14.13;7.87;;;;;;;11.54;65.44;100414.52;4099446;85;28580;-83
2022/11/27 10:17:19;;;;;;;14.20;8.53;;;;;;;11.54;64.13;100415.33;4065040;87;28527;-83
2022/11/27 10:23:35;;;;;;;16.52;9.58;;;;;;;11.29;65.14;100399.73;4066187;87;28507;-83
2022/11/27 10:29:40;;;;;;;16.02;8.80;;;;;;;11.60;64.82;100405.59;4057850;86;28642;-82
2022/11/27 10:35:44;;;;;;;16.70;9.63;;;;;;;11.67;64.35;100393.52;4063162;86;28498;-85
2022/11/27 10:42:00;;;;;;;16.27;9.25;;;;;;;11.50;64.08;100390.34;4120859;85;28563;-86
2022/11/27 10:48:02;;;;;;;17.42;9.25;;;;;;;11.69;63.47;100389.55;4102195;86;28546;-86
2022/11/27 10:54:06;;;;;;;15.55;9.03;;;;;;;12.01;63.19;100386.27;4099710;85;28523;-84
2022/11/27 11:00:22;;;;;;;16.60;10.03;;;;;;;11.86;63.70;100380.55;4089011;86;28591;-85
2022/11/27 11:06:28;;;;;;;17.33;10.07;;;;;;;11.86;64.02;100375.70;4030370;86;28592;-85
2022/11/27 11:12:28;;;;;;;16.50;9.48;;;;;;;11.67;63.76;100372.77;4027761;86;28547;-86
2022/11/27 11:18:43;;;;;;;18.02;9.30;;;;;;;11.95;62.78;100363.67;4044700;87;28534;-84
2022/11/27 11:24:51;;;;;;;16.93;9.95;;;;;;;12.09;62.56;100353.75;4023780;86;28534;-83
2022/11/27 11:31:00;;;;;;;15.90;9.23;;;;;;;12.55;62.32;100347.97;4045707;87;28582;-83
2022/11/27 11:37:06;;;;;;;16.17;9.28;;;;;;;12.06;62.55;100342.02;4042236;86;28517;-83
2022/11/27 11:43:27;;;;;;;16.50;9.23;;;;;;;12.25;62.09;100338.16;4014335;86;28582;-85
2022/11/27 11:49:32;;;;;;;16.02;9.08;;;;;;;12.09;61.76;100340.78;4051929;86;28536;-83
2022/11/27 11:55:42;;;;;;;17.25;9.10;;;;;;;11.98;62.14;100333.61;4088187;85;28493;-88
2022/11/27 12:02:17;;;;;;;16.75;9.73;;;;;;;12.28;61.46;100329.65;4096271;85;28483;-89
2022/11/27 12:08:24;;;;;;;17.17;9.40;;;;;;;12.06;61.71;100334.47;4096942;85;28500;-89
2022/11/27 12:14:40;;;;;;;16.02;8.65;;;;;;;12.08;61.31;100328.34;4048113;86;28538;-87
2022/11/27 12:21:17;;;;;;;;;;;;;;;;;;;;;
2022/11/27 12:27:55;;;;;;;14.43;8.68;;;;;;;12.26;61.04;100322.30;4070447;85;28500;-86
2022/11/27 12:34:08;;;;;;;16.73;8.93;;;;;;;12.02;61.20;100317.88;4021826;87;28531;-86
2022/11/27 12:40:33;;;;;;;19.07;10.23;;;;;;;11.92;61.75;100318.28;4032709;87;28570;-87
2022/11/27 12:46:57;;;;;;;15.43;8.97;;;;;;;11.89;61.18;100320.56;4044346;87;28540;-88
2022/11/27 12:53:19;;;;;;;17.77;9.68;;;;;;;11.70;62.18;100323.05;4023001;87;28531;-88
2022/11/27 12:59:42;;;;;;;16.15;9.10;;;;;;;11.49;63.16;100317.32;3985667;87;28560;-87
2022/11/27 13:05:48;;;;;;;15.98;8.68;;;;;;;11.89;62.44;100316.52;4050213;85;28563;-88
2022/11/27 13:11:53;;;;;;;16.25;8.63;;;;;;;11.14;63.37;100301.64;4040243;87;28560;-87
2022/11/27 13:18:14;;;;;;;17.05;9.73;;;;;;;11.44;63.15;100301.28;4030697;86;28612;-87
2022/11/27 13:24:15;;;;;;;17.95;8.85;;;;;;;11.83;62.22;100295.28;4048541;87;28520;-86
2022/11/27 13:30:31;;;;;;;15.53;8.70;;;;;;;11.58;62.56;100295.89;4048362;86;28665;-83
2022/11/27 13:36:43;;;;;;;18.40;10.23;;;;;;;11.17;63.76;100300.41;4097280;85;28543;-84
2022/11/27 13:42:49;;;;;;;18.23;10.03;;;;;;;11.14;64.46;100294.91;4093780;85;28609;-85
2022/11/27 13:48:56;;;;;;;23.70;12.28;;;;;;;11.01;64.75;100291.66;4101506;85;28504;-87
2022/11/27 13:55:06;;;;;;;18.60;10.20;;;;;;;11.63;64.51;100294.77;4076817;85;28497;-86
2022/11/27 14:01:21;;;;;;;19.10;10.85;;;;;;;11.33;64.63;100287.08;4098240;86;28558;-86
2022/11/27 14:07:25;;;;;;;21.17;11.37;;;;;;;10.95;65.51;100294.34;4092824;85;28536;-87
2022/11/27 14:13:47;;;;;;;22.10;11.78;;;;;;;10.99;66.01;100284.84;4018824;87;28527;-86
2022/11/27 14:20:03;;;;;;;19.23;10.30;;;;;;;10.93;66.50;100277.58;4067354;87;28564;-88
2022/11/27 14:26:13;;;;;;;20.23;10.68;;;;;;;11.28;66.06;100293.58;4092752;86;28575;-88
2022/11/27 14:32:16;;;;;;;20.57;11.30;;;;;;;11.16;66.83;100292.02;4099114;85;28670;-88
2022/11/27 14:38:18;;;;;;;22.45;11.20;;;;;;;10.83;67.26;100293.59;4093091;85;28533;-89
2022/11/27 14:44:20;;;;;;;21.35;11.05;;;;;;;10.67;67.46;100282.67;4076755;86;28540;-89
2022/11/27 14:50:26;;;;;;;21.17;10.60;;;;;;;10.64;67.20;100279.05;4050079;86;28515;-90
2022/11/27 14:56:42;;;;;;;22.90;12.67;;;;;;;10.27;69.55;100271.19;4037828;87;28522;-87
2022/11/27 15:02:47;;;;;;;23.98;12.25;;;;;;;10.28;68.96;100269.32;4029946;87;28555;-87
2022/11/27 15:08:50;;;;;;;20.80;11.30;;;;;;;10.45;69.08;100266.65;3959129;88;28575;-87
2022/11/27 15:15:06;;;;;;;23.20;11.53;;;;;;;10.39;68.94;100258.53;3986956;88;28568;-86
2022/11/27 15:21:14;;;;;;;23.57;11.63;;;;;;;10.57;69.30;100256.16;4056026;86;40674;-86
2022/11/27 15:27:20;;;;;;;25.57;12.35;;;;;;;10.63;68.69;100255.03;3967989;88;28537;-86
2022/11/27 15:33:31;;;;;;;24.37;12.73;;;;;;;10.71;68.67;100260.23;4008499;88;28585;-86
2022/11/27 15:39:52;;;;;;;25.25;13.65;;;;;;;10.41;69.20;100260.50;3975524;88;28963;-86
2022/11/27 15:45:53;;;;;;;25.72;13.80;;;;;;;10.13;71.12;100268.09;3962678;88;28531;-87
2022/11/27 15:51:56;;;;;;;24.43;12.47;;;;;;;10.35;70.92;100266.16;4043945;86;28575;-86
2022/11/27 15:57:59;;;;;;;24.77;12.88;;;;;;;10.35;70.52;100254.06;4064381;86;28489;-87
2022/11/27 16:04:01;;;;;;;26.95;13.62;;;;;;;10.24;72.45;100255.97;4060278;86;28568;-87
2022/11/27 16:10:06;;;;;;;26.35;13.95;;;;;;;9.95;73.82;100248.47;4052171;86;28506;-87
2022/11/27 16:16:09;;;;;;;26.42;13.20;;;;;;;9.78;74.63;100258.69;4063373;86;28619;-87
2022/11/27 16:22:10;;;;;;;28.80;15.10;;;;;;;9.93;73.32;100258.05;4060915;86;28490;-86
2022/11/27 16:28:12;;;;;;;28.80;14.40;;;;;;;9.69;76.00;100256.14;4060109;86;28588;-86
2022/11/27 16:34:16;;;;;;;27.13;13.80;;;;;;;10.24;73.36;100254.09;4055323;87;28533;-86
2022/11/27 16:40:17;;;;;;;22.35;10.95;;;;;;;10.20;72.59;100244.78;4047438;87;28593;-86
2022/11/27 16:46:26;;;;;;;23.73;11.03;;;;;;;9.86;72.60;100238.40;4054149;86;28663;-87
2022/11/27 16:52:28;;;;;;;18.20;9.90;;;;;;;9.96;72.54;100236.69;3991954;88;28523;-87
2022/11/27 16:58:37;;;;;;;20.85;10.68;;;;;;;10.15;71.64;100225.73;3989414;88;28568;-87
2022/11/27 17:04:39;;;;;;;22.25;11.00;;;;;;;9.76;72.13;100227.98;3946038;88;28540;-87
2022/11/27 17:10:44;;;;;;;23.90;10.13;;;;;;;9.61;74.42;100229.43;3985251;88;28646;-86
2022/11/27 17:16:46;;;;;;;20.75;10.40;;;;;;;10.18;71.61;100226.69;4010624;87;28496;-87
2022/11/27 17:22:48;;;;;;;19.52;10.30;;;;;;;10.16;70.54;100228.75;3988525;88;28473;-87
2022/11/27 17:28:54;;;;;;;21.93;11.70;;;;;;;9.96;71.76;100221.91;3964987;88;28520;-87
2022/11/27 17:34:54;;;;;;;23.22;12.37;;;;;;;9.80;72.63;100219.03;3947234;88;28506;-87
2022/11/27 17:41:01;;;;;;;25.68;13.30;;;;;;;9.87;71.58;100213.19;3958759;88;28545;-86
2022/11/27 17:47:03;;;;;;;25.50;14.15;;;;;;;9.27;74.79;100211.74;3985113;88;28515;-89
2022/11/27 17:53:09;;;;;;;27.42;14.10;;;;;;;9.52;73.80;100202.41;4057596;86;29057;-91
2022/11/27 17:59:09;;;;;;;24.72;13.72;;;;;;;9.60;73.35;100200.92;4059573;86;28588;-90
2022/11/27 18:05:12;;;;;;;27.00;14.47;;;;;;;9.35;74.93;100185.27;4043553;87;28527;-91
2022/11/27 18:11:22;;;;;;;26.45;12.80;;;;;;;9.23;75.48;100180.93;4060072;86;28476;-90
2022/11/27 18:17:23;;;;;;;28.20;14.40;;;;;;;9.21;76.23;100173.59;4061622;86;28518;-90
2022/11/27 18:23:30;;;;;;;26.20;14.10;;;;;;;9.59;75.24;100174.60;4051993;87;28498;-90
2022/11/27 18:29:36;;;;;;;25.35;13.88;;;;;;;9.66;74.15;100161.22;4041446;86;28547;-90
2022/11/27 18:35:53;;;;;;;26.48;14.58;;;;;;;9.57;74.15;100157.84;4054471;85;28529;-90
2022/11/27 18:41:54;;;;;;;28.32;14.80;;;;;;;9.69;73.52;100143.89;4049755;86;28573;-91
2022/11/27 18:48:03;;;;;;;30.05;15.63;;;;;;;9.03;75.60;100146.72;4044046;86;28598;-91
2022/11/27 18:54:04;;;;;;;28.65;15.83;;;;;;;9.56;73.20;100137.39;4044064;86;28524;-89
2022/11/27 19:00:07;;;;;;;32.05;16.52;;;;;;;9.54;73.54;100127.89;4062728;86;28511;-85
2022/11/27 19:06:12;;;;;;;31.55;16.65;;;;;;;9.63;73.52;100134.23;4043818;87;28581;-88
2022/11/27 19:12:13;;;;;;;34.95;17.35;;;;;;;9.63;73.85;100142.80;4042464;87;28560;-84
2022/11/27 19:18:15;;;;;;;31.40;16.82;;;;;;;9.63;73.68;100145.48;4051484;86;28514;-84
2022/11/27 19:24:17;;;;;;;27.87;15.00;;;;;;;9.90;72.13;100157.72;4096433;86;28534;-82
2022/11/27 19:30:18;;;;;;;30.85;16.23;;;;;;;9.89;72.39;100152.87;4067828;86;28532;-87
2022/11/27 19:36:21;;;;;;;31.95;16.75;;;;;;;9.79;72.73;100155.09;4067425;86;28543;-87
2022/11/27 19:42:24;;;;;;;34.33;17.62;;;;;;;9.64;73.37;100141.80;4065511;86;28527;-88
2022/11/27 19:48:25;;;;;;;32.80;16.50;;;;;;;9.55;74.61;100142.44;4070954;86;28666;-85
2022/11/27 19:54:27;;;;;;;34.40;18.00;;;;;;;9.90;72.91;100133.55;4063707;86;28513;-84
2022/11/27 20:00:29;;;;;;;36.08;18.60;;;;;;;9.68;74.24;100133.64;4064064;87;28533;-87
2022/11/27 20:06:33;;;;;;;34.45;18.60;;;;;;;9.65;73.64;100130.02;4029732;87;28507;-88
2022/11/27 20:12:35;;;;;;;36.73;17.55;;;;;;;9.35;75.67;100113.62;4064010;86;28513;-87
2022/11/27 20:18:41;;;;;;;39.03;19.02;;;;;;;9.30;76.45;100109.86;4058818;86;29002;-87
2022/11/27 20:24:42;;;;;;;37.42;18.42;;;;;;;9.19;77.46;100097.30;4041028;86;28594;-86
2022/11/27 20:30:47;;;;;;;37.40;19.60;;;;;;;9.17;79.26;100093.19;4035035;86;28511;-84
2022/11/27 20:36:53;;;;;;;38.80;18.48;;;;;;;9.32;78.56;100087.67;4064550;86;28564;-88
2022/11/27 20:42:56;;;;;;;38.53;19.42;;;;;;;9.43;77.02;100084.97;4104673;85;28519;-86
2022/11/27 20:48:59;;;;;;;42.48;20.27;;;;;;;9.33;77.52;100078.09;4073056;85;28509;-89
2022/11/27 20:55:04;;;;;;;42.00;21.00;;;;;;;8.63;79.12;100075.30;4107735;85;28564;-88
2022/11/27 21:01:24;;;;;;;37.83;21.05;;;;;;;9.17;78.08;100078.42;4103380;85;28603;-90
2022/11/27 21:07:28;;;;;;;38.73;20.35;;;;;;;9.56;75.99;100081.00;4088105;85;28494;-81
2022/11/27 21:13:30;;;;;;;37.53;20.30;;;;;;;9.53;76.29;100079.23;4058246;86;28674;-85
2022/11/27 21:19:31;;;;;;;39.05;20.50;;;;;;;9.14;77.20;100086.34;4050508;86;28503;-92
2022/11/27 21:25:42;;;;;;;40.33;20.12;;;;;;;9.22;77.53;100077.84;4065253;85;28523;-91
2022/11/27 21:31:41;;;;;;;41.95;20.08;;;;;;;9.10;77.26;100081.56;4073836;85;28539;-93
2022/11/27 21:37:44;;;;;;;39.95;19.85;;;;;;;8.86;79.34;100070.26;4083303;85;28559;-91
2022/11/27 21:43:52;;;;;;;39.73;20.57;;;;;;;9.11;77.75;100076.02;4083180;84;28574;-93
2022/11/27 21:50:06;;;;;;;38.50;20.02;;;;;;;8.92;79.47;100070.30;4074665;85;28559;-90
2022/11/27 21:56:15;;;;;;;38.33;19.67;;;;;;;8.82;79.76;100072.50;4086341;85;28562;-92
2022/11/27 22:02:22;;;;;;;38.15;20.08;;;;;;;8.48;82.21;100066.80;4106732;85;28535;-88
2022/11/27 22:08:28;;;;;;;46.13;21.27;;;;;;;8.09;84.70;100063.54;4139233;85;28554;-89
2022/11/27 22:14:33;;;;;;;;;;;;;;;8.42;83.96;100048.80;4112518;86;28591;-89
2022/11/27 22:20:40;;;;;;;38.05;20.02;;;;;;;8.41;82.71;100044.47;4087532;85;20210;-91
2022/11/27 22:26:44;;;;;;;41.77;21.10;;;;;;;8.67;83.17;100042.24;4048825;85;28563;-91
2022/11/27 22:32:52;;;;;;;40.70;19.70;;;;;;;8.49;84.02;100030.94;4089837;84;28571;-90
2022/11/27 22:39:01;;;;;;;42.95;20.00;;;;;;;8.64;82.77;100036.75;4122607;85;28715;-90
2022/11/27 22:45:06;;;;;;;43.35;21.73;;;;;;;9.09;80.28;100023.57;4065428;86;28578;-90
2022/11/27 22:51:09;;;;;;;40.50;20.20;;;;;;;8.98;80.96;100017.73;4085276;85;28529;-90
2022/11/27 22:57:13;;;;;;;42.38;21.23;;;;;;;8.91;81.04;100016.35;4096990;85;28551;-90
2022/11/27 23:24:19;;;;;;;41.83;21.27;;;;;;;8.29;85.71;99974.50;3987868;89;20240;-92
2022/11/27 23:30:26;;;;;;;42.93;22.05;;;;;;;8.28;86.41;99982.72;4005430;88;28527;-93
2022/11/27 23:36:34;;;;;;;44.65;21.90;;;;;;;7.94;87.77;99982.41;3924769;88;28524;-87
2022/11/27 23:42:37;;;;;;;44.48;22.58;;;;;;;8.18;87.02;99975.02;4045465;87;28500;-87
2022/11/27 23:48:40;;;;;;;46.90;23.77;;;;;;;7.99;87.23;99979.16;4084850;85;28512;-89
2022/11/27 23:54:50;;;;;;;50.08;23.52;;;;;;;8.27;86.39;99971.16;4096631;85;28649;-90
